• Join FlightAware (Why Join?)
  • Login
  • US Flag 
06:10PM EST


 

Airport Tracker/Info


-or-


 

Live Flight TrackerFlight Track Log ✈ SWA1866 ✈ 09-May-2013 ✈ KDEN - KMDW

Flight Track Log - Related Links

Times and Time Zones

All times are in EDT time to prevent confusion due to time zone crossing. See the SWA1866 flight status page for this flight to view local times or setup timezone preferences in your user account.

Time Position Orientation Groundspeed Altitude Reporting Facility
EDT Latitude Longitude Course Direction KTS MPH feet Rate Location/Type
03:39PM 39.8833 -104.5833 90° East 169 194 7,000  Level Denver TRACON
03:40PM 39.8833 -104.5000 90° East 227 261 9,200 1,500 Climbing Denver TRACON
03:41PM 39.8742 -104.4144 98° East 249 287 10,000 1,260 Climbing Denver Center
03:42PM 39.8739 -104.3106 90° East 281 323 11,800 2,460 Climbing Denver Center
03:43PM 39.8731 -104.2081 91° East 286 329 15,200 2,460 Climbing Denver Center
03:44PM 39.8833 -103.6499 90° East  Level FlightAware Approximate
03:44PM 39.8725 -104.0803 90° East 333 383 17,000  Level Denver Center
03:45PM 39.8719 -103.9469 90° East 368 423 19,600 2,460 Climbing Denver Center
03:46PM 39.8786 -103.7947 87° East 388 447 22,200 2,520 Climbing Denver Center
03:47PM 39.8928 -103.6464 83° East 390 449 24,900 2,340 Climbing Denver Center
03:48PM 39.9092 -103.5072 81° East 403 464 27,100 1,800 Climbing Denver Center
03:49PM 39.9256 -103.3586 82° East 420 483 28,700 1,680 Climbing Denver Center
03:50PM 39.9453 -103.1850 82° East 434 499 30,600 1,800 Climbing Denver Center
03:51PM 39.9642 -103.0114 82° East 432 497 32,900 1,980 Climbing Denver Center
03:52PM 39.9833 -102.8419 82° East 424 488 35,200 1,620 Climbing Denver Center
03:53PM 40.0033 -102.6475 82° East 426 490 36,600 780 Climbing Denver Center
03:54PM 40.0194 -102.4986 82° East 434 499 37,000 180 Climbing Denver Center
03:55PM 40.0378 -102.3236 82° East 435 501 37,000  Level Denver Center
03:56PM 40.0525 -102.1747 83° East 433 498 37,000  Level Denver Center
03:58PM 40.0700 -102.0000 82° East 434 499 37,000  Level Denver Center
03:59PM 40.0881 -101.8258 82° East 436 502 37,000  Level Denver Center
04:00PM 40.1056 -101.6511 82° East 434 499 37,000  Level Denver Center
04:01PM 40.1172 -101.5281 83° East 431 496 37,000  Level Denver Center
04:02PM 40.1361 -101.3294 83° East 433 498 37,000  Level Denver Center
04:03PM 40.1503 -101.1783 83° East 437 503 37,000  Level Denver Center
04:04PM 40.1664 -101.0056 83° East 433 498 37,000  Level Denver Center
04:05PM 40.1794 -100.8572 83° East 432 497 37,000  Level Denver Center
04:06PM 40.1956 -100.6850 83° East 429 494 37,000  Level Denver Center
04:07PM 40.2061 -100.5369 85° East 429 494 37,000  Level Denver Center
04:08PM 40.2075 -100.3644 89° East 429 494 37,000  Level Denver Center
04:09PM 40.2097 -100.2153 89° East 430 495 37,000  Level Denver Center
04:10PM 40.2122 -100.0422 89° East 428 493 37,000  Level Denver Center
04:11PM 40.2142 -99.8881 89° East 431 496 37,000  Level Denver Center
04:12PM 40.2158 -99.7308 89° East 434 499 37,000  Level Denver Center
04:13PM 40.2172 -99.5431 89° East 432 497 37,000  Level Denver Center
04:14PM 40.2194 -99.3864 89° East 433 498 37,000  Level Denver Center
04:15PM 40.2194 -99.2297 90° East 432 497 37,000  Level Denver Center
04:16PM 40.2219 -99.0433 89° East 428 493 37,000  Level Denver Center
04:18PM 40.2222 -98.8558 90° East 430 495 37,000  Level Denver Center
04:18PM 40.2231 -98.7950 89° East 430 495 37,000  Level Minneapolis Center
04:19PM 40.2231 -98.6389 90° East 430 495 37,000  Level Minneapolis Center
04:20PM 40.2219 -98.4825 90° East 430 495 37,000  Level Minneapolis Center
04:21PM 40.2222 -98.3264 90° East 431 496 37,000  Level Minneapolis Center
04:22PM 40.2225 -98.1714 90° East 429 494 37,000  Level Minneapolis Center
04:23PM 40.2208 -97.9833 91° East 431 496 37,000  Level Minneapolis Center
04:24PM 40.2208 -97.8267 90° East 431 496 37,000  Level Minneapolis Center
04:25PM 40.2197 -97.6700 90° East 432 497 37,000  Level Minneapolis Center
04:26PM 40.2186 -97.5139 90° East 430 495 37,000  Level Minneapolis Center
04:27PM 40.2167 -97.3578 91° East 430 495 37,000  Level Minneapolis Center
04:28PM 40.2150 -97.2050 91° East 429 494 37,000  Level Minneapolis Center
04:29PM 40.2136 -97.0194 91° East 428 493 37,000  Level Minneapolis Center
04:31PM 40.2108 -96.8647 91° East 428 493 37,000  Level Minneapolis Center
04:32PM 40.2089 -96.7092 91° East 428 493 37,000  Level Minneapolis Center
04:33PM 40.2067 -96.5531 91° East 431 496 37,000  Level Minneapolis Center
04:34PM 40.2033 -96.3969 92° East 431 496 37,000  Level Minneapolis Center
04:35PM 40.2008 -96.2067 91° East 435 501 37,000  Level Minneapolis Center
04:36PM 40.2275 -96.0556 77° East 431 496 37,000  Level Minneapolis Center
04:37PM 40.2567 -95.9000 76° East 437 503 37,000  Level Minneapolis Center
04:38PM 40.2856 -95.7439 76° East 441 507 37,000  Level Minneapolis Center
04:39PM 40.3136 -95.5917 76° East 436 502 37,000  Level Minneapolis Center
04:40PM 40.3414 -95.4369 77° East 436 502 37,000  Level Minneapolis Center
04:41PM 40.3747 -95.2525 77° East 436 502 37,000  Level Minneapolis Center
04:42PM 40.4025 -95.0967 77° East 438 504 37,000  Level Minneapolis Center
04:43PM 40.4306 -94.9417 77° East 438 504 37,000  Level Minneapolis Center
04:44PM 40.4581 -94.7867 77° East 438 504 37,000  Level Minneapolis Center
04:45PM 40.4836 -94.6319 78° East 435 501 37,000  Level Minneapolis Center
04:46PM 40.5125 -94.4711 77° East 438 504 37,000  Level Minneapolis Center
04:47PM 40.5381 -94.3189 77° East 434 499 37,000  Level Minneapolis Center
04:48PM 40.5703 -94.1336 77° East 434 499 37,000  Level Minneapolis Center
04:49PM 40.5953 -93.9800 78° East 433 498 37,000  Level Minneapolis Center
04:50PM 40.6183 -93.8253 79° East 435 501 37,000  Level Minneapolis Center
04:51PM 40.6383 -93.6697 80° East 434 499 37,000  Level Minneapolis Center
04:52PM 40.6631 -93.5111 78° East 439 505 37,000  Level Minneapolis Center
04:53PM 40.6908 -93.3206 79° East 441 507 37,000  Level Minneapolis Center
04:54PM 40.7144 -93.1617 79° East 442 509 37,000  Level Minneapolis Center
04:55PM 40.7358 -93.0036 80° East 441 507 37,000 -180 Level Minneapolis Center
04:56PM 40.7575 -92.8456 80° East 440 506 36,700 -540 Descending Minneapolis Center
04:57PM 40.7669 -92.7808 79° East 441 507 36,300 -1,020 Descending Chicago Center
04:58PM 40.7900 -92.6172 79° East 452 520 35,300 -960 Descending Chicago Center
04:59PM 40.8119 -92.4492 80° East 464 534 34,400 -1,200 Descending Chicago Center
05:00PM 40.8322 -92.2858 81° East 455 524 32,800 -1,680 Descending Chicago Center
05:01PM 40.8578 -92.0942 80° East 446 513 31,000 -900 Descending Chicago Center
05:02PM 40.8797 -91.9394 79° East 435 501 31,000  Level Chicago Center
05:03PM 40.8997 -91.7842 80° East 433 498 31,000  Level Chicago Center
05:04PM 40.9192 -91.6261 81° East 436 502 31,000 -420 Level Chicago Center
05:05PM 40.9392 -91.4703 80° East 434 499 30,200 -960 Descending Chicago Center
05:06PM 40.9608 -91.2978 81° East 433 498 29,100 -1,020 Descending Chicago Center
05:07PM 40.9803 -91.1428 81° East 427 491 28,100 -960 Descending Chicago Center
05:08PM 40.9986 -90.9914 81° East 419 482 27,100 -1,080 Descending Chicago Center
05:09PM 41.0161 -90.8414 81° East 414 476 25,900 -1,500 Descending Chicago Center
05:10PM 41.0378 -90.6656 81° East 404 465 24,000 -1,260 Descending Chicago Center
05:11PM 41.0542 -90.5217 81° East 396 456 23,300 -780 Descending Chicago Center
05:12PM 41.0711 -90.3786 81° East 394 453 22,400 -1,020 Descending Chicago Center
05:13PM 41.0875 -90.2356 81° East 391 450 21,300 -1,020 Descending Chicago Center
05:14PM 41.1039 -90.0958 81° East 384 442 20,300 -1,020 Descending Chicago Center
05:15PM 41.1200 -89.9575 81° East 379 436 19,300 -1,140 Descending Chicago Center
05:16PM 41.1344 -89.8217 82° East 374 430 18,000 -1,740 Descending Chicago Center
05:17PM 41.1522 -89.6631 81° East 361 415 15,800 -1,800 Descending Chicago Center
05:18PM 41.1783 -89.5336 75° East 364 419 14,400 -1,200 Descending Chicago Center
05:20PM 41.2158 -89.4186 67° East 345 397 13,400 -1,020 Descending Chicago Center
05:21PM 41.2503 -89.2992 69° East 343 395 12,400 -960 Descending Chicago Center
05:22PM 41.2825 -89.1897 69° East 335 386 11,500 -1,020 Descending Chicago Center
05:23PM 41.3253 -89.0544 67° East 333 383 10,300 -780 Descending Chicago Center
05:24PM 41.3569 -88.9481 68° East 314 361 9,900 -240 Descending Chicago Center
05:25PM 41.3881 -88.8469 68° East 299 344 9,900 -360 Level Chicago Center
05:26PM 41.4192 -88.7433 68° East 303 349 9,200 -1,140 Descending Chicago Center
05:27PM 41.4506 -88.6392 68° East 304 350 7,600 -1,560 Descending Chicago Center
05:28PM 41.4864 -88.5200 68° East 293 337 6,000 -1,260 Descending Chicago Center
05:29PM 41.5156 -88.4219 68° East 287 330 5,000 -540 Descending Chicago Center
05:30PM 41.5439 -88.3261 68° East 280 322 5,000  Level Chicago Center
05:31PM 41.5692 -88.2300 71° East 276 318 5,000  Level Chicago Center
05:32PM 41.5806 -88.1294 81° East 272 313 5,000  Level Chicago Center
05:33PM 41.5922 -88.0272 81° East 276 318 5,000  Level Chicago Center
05:34PM 41.6044 -87.9250 81° East 277 319 5,000  Level Chicago Center
05:35PM 41.6194 -87.8033 81° East 277 319 5,000 -420 Level Chicago Center
05:36PM 41.6169 -87.7083 92° East 273 314 4,200 -1,020 Descending Chicago Center
05:37PM 41.6331 -87.6217 76° East 268 308 3,000 -600 Descending Chicago Center
05:38PM 41.6872 -87.6189 North 241 277 3,000 -420 Level Chicago Center
05:39PM 41.7333 -87.6833 314° West 187 215 2,200 -600 Descending Chicago TRACON
05:40PM 41.7833 -87.6833 360° North 163 188 1,800 -480 Descending Chicago TRACON
05:41PM 41.8000 -87.7167 304° West 146 168 1,400 -540 Descending Chicago TRACON
05:44PM 41.7833 -87.7500 51° Northeast  Level FlightAware Approximate